createdAt,value
2022-12-15T00:01:40.431Z,94838.22
2022-12-15T00:04:07.343Z,94834.69
2022-12-15T00:06:37.018Z,94828.00
2022-12-15T00:09:03.509Z,94824.66
2022-12-15T00:11:29.878Z,94835.19
2022-12-15T00:13:56.326Z,94830.25
2022-12-15T00:16:22.888Z,94838.78
2022-12-15T00:21:32.746Z,94830.56
2022-12-15T00:26:47.137Z,94829.59
2022-12-15T00:32:07.485Z,94837.03
2022-12-15T00:34:07.362Z,94831.97
2022-12-15T00:34:34.097Z,94852.13
2022-12-15T00:37:00.633Z,94852.78
2022-12-15T00:39:26.999Z,94856.66
2022-12-15T00:41:56.176Z,94863.47
2022-12-15T00:44:22.769Z,94851.63
2022-12-15T00:46:55.563Z,94850.28
2022-12-15T00:49:22.198Z,94854.44
2022-12-15T00:51:48.854Z,94848.53
2022-12-15T00:54:24.347Z,94854.09
2022-12-15T00:56:50.685Z,94850.84
2022-12-15T00:59:17.106Z,94859.81
2022-12-15T01:01:52.820Z,94847.63
2022-12-15T01:20:59.558Z,94851.72
2022-12-15T01:34:19.775Z,94839.94
2022-12-15T01:36:55.125Z,94849.28
2022-12-15T01:50:23.684Z,94875.81
2022-12-15T01:52:52.696Z,94873.75
2022-12-15T02:14:58.960Z,94860.84
2022-12-15T02:23:10.306Z,94870.63
2022-12-15T02:34:27.041Z,94852.94
2022-12-15T02:58:47.865Z,94837.84
2022-12-15T03:01:26.360Z,94837.53
2022-12-15T03:03:52.954Z,94836.25
2022-12-15T03:07:13.189Z,94843.97
2022-12-15T03:11:56.847Z,94856.63
2022-12-15T03:20:12.558Z,94862.41
2022-12-15T03:36:14.273Z,94857.97
2022-12-15T03:38:42.900Z,94860.63
2022-12-15T03:41:19.099Z,94853.69
2022-12-15T03:44:05.592Z,94865.53
2022-12-15T03:49:12.497Z,94855.34
2022-12-15T03:54:39.302Z,94853.00
2022-12-15T03:57:16.832Z,94853.09
2022-12-15T04:02:43.448Z,94855.84
2022-12-15T04:05:09.968Z,94854.28
2022-12-15T04:07:36.348Z,94854.41
2022-12-15T04:10:05.813Z,94856.16
2022-12-15T04:12:35.203Z,94855.91
2022-12-15T04:15:18.302Z,94851.06
2022-12-15T04:23:25.661Z,94829.44
2022-12-15T04:25:52.357Z,94821.78
2022-12-15T04:28:18.765Z,94825.38
2022-12-15T04:30:45.461Z,94823.94
2022-12-15T04:33:11.923Z,94819.03
2022-12-15T04:41:00.105Z,94816.09
2022-12-15T04:43:26.459Z,94812.22
2022-12-15T04:45:52.931Z,94816.19
2022-12-15T04:49:16.635Z,94823.81
2022-12-15T04:54:03.074Z,94833.66
2022-12-15T04:56:29.580Z,94844.63
2022-12-15T04:58:55.943Z,94837.22
2022-12-15T05:01:22.439Z,94837.97
2022-12-15T05:03:50.547Z,94824.91
2022-12-15T05:06:17.210Z,94836.63
2022-12-15T05:08:46.005Z,94828.00
2022-12-15T05:11:20.474Z,94822.81
2022-12-15T05:13:55.584Z,94835.56
2022-12-15T05:16:29.579Z,94845.50
2022-12-15T05:18:55.966Z,94847.72
2022-12-15T05:21:22.484Z,94844.44
2022-12-15T05:23:54.346Z,94852.31
2022-12-15T05:32:02.627Z,94844.97
2022-12-15T05:34:29.252Z,94835.06
2022-12-15T05:36:55.621Z,94829.38
2022-12-15T05:39:28.798Z,94830.22
2022-12-15T07:09:54.089Z,94955.31
2022-12-15T07:12:24.079Z,94954.69
2022-12-15T07:25:42.485Z,94968.69
2022-12-15T07:28:24.179Z,94976.03
2022-12-15T08:09:13.154Z,95001.22
2022-12-15T08:11:39.608Z,94998.75
2022-12-15T08:14:24.261Z,95013.47
2022-12-15T08:19:58.726Z,95003.22
2022-12-15T08:25:10.085Z,94995.28
2022-12-15T08:36:03.153Z,94997.94
2022-12-15T08:38:32.555Z,94988.13
2022-12-15T08:52:06.694Z,95027.78
2022-12-15T09:00:15.744Z,95037.19
2022-12-15T09:02:44.989Z,95044.63
2022-12-15T09:05:11.504Z,95050.97
2022-12-15T09:07:37.911Z,95042.88
2022-12-15T09:18:37.125Z,95044.63
2022-12-15T09:21:03.517Z,95042.50
2022-12-15T09:23:30.167Z,95040.56
2022-12-15T09:26:05.988Z,95034.31
2022-12-15T09:28:32.799Z,95015.63
2022-12-15T09:31:01.411Z,95020.22
2022-12-15T09:33:36.734Z,95007.03
2022-12-15T09:36:07.316Z,95017.22
2022-12-15T09:38:35.809Z,95013.31
2022-12-15T09:41:05.567Z,95019.91
2022-12-15T09:43:34.939Z,95017.38
2022-12-15T09:46:11.065Z,95023.00
2022-12-15T09:48:37.639Z,95021.47
2022-12-15T09:51:22.997Z,95031.03
2022-12-15T09:53:56.229Z,95027.38
2022-12-15T09:56:25.822Z,95030.06
2022-12-15T10:01:46.398Z,95020.59
2022-12-15T10:04:14.609Z,95010.41
2022-12-15T10:06:41.103Z,95006.66
2022-12-15T10:20:14.875Z,95014.75
2022-12-15T10:22:41.964Z,95011.53
2022-12-15T10:33:26.459Z,94988.09
2022-12-15T10:36:02.961Z,94989.31
2022-12-15T10:49:18.926Z,94961.81
2022-12-15T10:51:46.843Z,94955.56
2022-12-15T10:54:15.513Z,94951.16
2022-12-15T10:59:22.252Z,94937.53
2022-12-15T11:01:55.575Z,94929.13
2022-12-15T11:04:24.711Z,94929.91
2022-12-15T11:07:15.518Z,94924.47
2022-12-15T11:09:42.200Z,94914.88
2022-12-15T11:15:12.246Z,94919.16
2022-12-15T11:34:02.118Z,94899.25
2022-12-15T11:50:17.559Z,94852.59
2022-12-15T11:52:52.905Z,94853.41
2022-12-15T11:55:41.067Z,94846.16
2022-12-15T12:03:44.706Z,94829.50
2022-12-15T12:06:13.582Z,94835.19
2022-12-15T12:08:42.996Z,94840.84
2022-12-15T12:16:44.028Z,94835.34
2022-12-15T12:19:19.060Z,94834.69
2022-12-15T12:22:03.246Z,94831.16
2022-12-15T12:30:40.274Z,94793.53
2022-12-15T12:33:33.246Z,94793.16
2022-12-15T12:35:48.704Z,94780.25
2022-12-15T12:44:00.732Z,94781.78
2022-12-15T12:46:37.541Z,94777.31
2022-12-15T12:49:08.551Z,94776.16
2022-12-15T12:51:42.808Z,94765.84
2022-12-15T12:56:57.230Z,94770.25
2022-12-15T12:59:30.297Z,94761.84
2022-12-15T13:01:58.999Z,94753.78
2022-12-15T13:15:26.483Z,94721.16
2022-12-15T13:18:08.838Z,94715.56
2022-12-15T14:15:23.592Z,94718.63
2022-12-15T14:17:52.425Z,94727.47
2022-12-15T14:20:18.801Z,94723.34
2022-12-15T14:22:45.180Z,94716.66
2022-12-15T14:25:12.105Z,94712.56
2022-12-15T14:27:45.930Z,94700.84
2022-12-15T14:30:22.608Z,94701.03
2022-12-15T14:32:49.115Z,94705.06
2022-12-15T14:35:16.875Z,94693.16
2022-12-15T14:40:28.420Z,94697.91
2022-12-15T14:43:04.687Z,94692.16
2022-12-15T14:45:32.666Z,94686.38
2022-12-15T14:48:39.104Z,94682.34
2022-12-15T14:50:45.900Z,94688.25
2022-12-15T14:53:15.700Z,94688.84
2022-12-15T14:55:43.948Z,94701.13
2022-12-15T14:58:10.558Z,94700.06
2022-12-15T15:00:37.128Z,94703.34
2022-12-15T15:05:46.931Z,94702.97
2022-12-15T15:08:16.757Z,94705.81
2022-12-15T15:10:43.959Z,94715.75
2022-12-15T15:13:10.362Z,94715.13
2022-12-15T15:15:36.760Z,94721.31
2022-12-15T15:18:03.189Z,94733.09
2022-12-15T15:20:32.175Z,94730.72
2022-12-15T15:23:01.070Z,94723.50
2022-12-15T15:25:55.063Z,94723.44
2022-12-15T15:28:19.452Z,94713.25
2022-12-15T15:30:48.173Z,94723.00
2022-12-15T15:33:18.287Z,94722.53
2022-12-15T15:35:44.726Z,94716.25
2022-12-15T15:38:13.955Z,94722.38
2022-12-15T15:40:44.773Z,94722.53
2022-12-15T15:43:13.209Z,94729.09
2022-12-15T15:45:39.796Z,94721.19
2022-12-15T15:48:06.259Z,94731.16
2022-12-15T15:50:32.717Z,94727.34
2022-12-15T15:52:59.126Z,94717.16
2022-12-15T15:55:33.677Z,94710.44
2022-12-15T15:58:04.319Z,94722.44
2022-12-15T16:00:45.023Z,94709.47
2022-12-15T16:03:13.562Z,94711.31
2022-12-15T16:05:42.948Z,94708.81
2022-12-15T16:08:13.394Z,94702.19
2022-12-15T16:10:39.892Z,94708.13
2022-12-15T16:13:06.280Z,94703.19
2022-12-15T16:15:35.188Z,94712.69
2022-12-15T16:18:02.864Z,94697.31
2022-12-15T16:20:32.281Z,94690.19
2022-12-15T16:25:52.924Z,94684.50
2022-12-15T16:31:04.606Z,94689.69
2022-12-15T16:33:33.102Z,94683.13
2022-12-15T16:36:19.109Z,94681.78
2022-12-15T16:55:46.103Z,94710.53
2022-12-15T17:17:21.915Z,94700.59
2022-12-15T17:22:42.945Z,94686.94
2022-12-15T17:25:09.465Z,94690.22
2022-12-15T17:27:35.786Z,94692.81
2022-12-15T17:30:03.830Z,94691.91
2022-12-15T17:32:30.289Z,94692.91
2022-12-15T17:34:56.702Z,94693.94
2022-12-15T17:37:23.193Z,94703.59
2022-12-15T17:39:49.591Z,94694.97
2022-12-15T17:42:15.914Z,94696.84
2022-12-15T17:44:42.318Z,94695.56
2022-12-15T17:47:09.255Z,94696.41
2022-12-15T17:49:38.300Z,94690.56
2022-12-15T17:52:05.236Z,94681.31
2022-12-15T17:54:31.638Z,94682.88
2022-12-15T17:56:57.993Z,94676.28
2022-12-15T17:59:24.444Z,94676.22
2022-12-15T18:01:50.886Z,94678.63
2022-12-15T18:04:17.370Z,94681.63
2022-12-15T18:06:43.839Z,94677.09
2022-12-15T18:09:10.167Z,94673.13
2022-12-15T18:11:36.496Z,94673.53
2022-12-15T18:14:02.914Z,94662.41
2022-12-15T18:16:29.322Z,94675.59
2022-12-15T18:18:55.736Z,94677.19
2022-12-15T18:21:22.124Z,94675.53
2022-12-15T18:23:48.481Z,94672.84
2022-12-15T18:26:14.869Z,94671.06
2022-12-15T18:28:41.227Z,94678.19
2022-12-15T18:31:07.600Z,94677.47
2022-12-15T18:33:34.562Z,94675.25
2022-12-15T18:36:01.347Z,94674.63
2022-12-15T18:38:27.721Z,94673.59
2022-12-15T18:40:54.144Z,94666.81
2022-12-15T18:43:20.553Z,94677.13
2022-12-15T18:45:46.880Z,94676.59
2022-12-15T18:48:13.290Z,94672.06
2022-12-15T18:50:39.654Z,94676.22
2022-12-15T18:53:06.042Z,94675.97
2022-12-15T18:55:32.457Z,94683.63
2022-12-15T18:57:58.816Z,94683.84
2022-12-15T19:00:25.201Z,94697.06
2022-12-15T19:02:51.775Z,94692.25
2022-12-15T19:05:18.219Z,94700.09
2022-12-15T19:07:44.598Z,94697.47
2022-12-15T19:10:10.936Z,94697.53
2022-12-15T19:12:37.314Z,94698.38
2022-12-15T19:15:03.632Z,94698.56
2022-12-15T19:17:30.049Z,94695.41
2022-12-15T19:19:56.417Z,94688.44
2022-12-15T19:22:22.742Z,94689.09
2022-12-15T19:24:49.108Z,94691.63
2022-12-15T19:27:15.663Z,94696.44
2022-12-15T19:29:41.972Z,94697.25
2022-12-15T19:32:08.312Z,94700.50
2022-12-15T19:34:34.745Z,94690.94
2022-12-15T19:37:01.068Z,94696.84
2022-12-15T19:39:27.428Z,94710.44
2022-12-15T19:41:53.836Z,94703.06
2022-12-15T19:44:21.295Z,94701.09
2022-12-15T19:46:47.634Z,94718.88
2022-12-15T19:49:14.043Z,94709.47
2022-12-15T19:51:40.471Z,94712.19
2022-12-15T19:54:06.805Z,94712.38
2022-12-15T19:56:33.289Z,94712.44
2022-12-15T19:58:59.635Z,94725.22
2022-12-15T20:01:26.123Z,94721.38
2022-12-15T20:03:52.692Z,94713.34
2022-12-15T20:06:19.103Z,94711.09
2022-12-15T20:08:45.512Z,94714.41
2022-12-15T20:11:11.906Z,94713.94
2022-12-15T20:13:38.259Z,94726.19
2022-12-15T20:16:04.629Z,94732.22
2022-12-15T20:18:31.413Z,94728.50
2022-12-15T20:20:58.044Z,94737.09
2022-12-15T20:23:24.429Z,94731.53
2022-12-15T20:25:50.848Z,94731.25
2022-12-15T20:28:17.232Z,94729.06
2022-12-15T20:30:43.724Z,94738.53
2022-12-15T20:33:10.079Z,94743.19
2022-12-15T20:35:36.517Z,94733.06
2022-12-15T20:38:02.893Z,94736.28
2022-12-15T20:40:29.309Z,94737.28
2022-12-15T20:42:55.679Z,94730.31
2022-12-15T20:45:22.044Z,94728.94
2022-12-15T20:47:48.457Z,94730.97
2022-12-15T20:50:14.792Z,94731.16
2022-12-15T20:52:41.137Z,94733.00
2022-12-15T20:55:07.499Z,94728.84
2022-12-15T20:57:33.845Z,94733.91
2022-12-15T21:00:00.172Z,94737.47
2022-12-15T21:02:26.763Z,94743.75
2022-12-15T21:04:53.178Z,94737.91
2022-12-15T21:07:19.599Z,94738.84
2022-12-15T21:09:46.024Z,94740.56
2022-12-15T21:12:12.420Z,94746.16
2022-12-15T21:14:38.759Z,94748.22
2022-12-15T21:17:05.204Z,94749.19
2022-12-15T21:19:31.645Z,94754.06
2022-12-15T21:21:58.004Z,94753.69
2022-12-15T21:24:24.367Z,94756.03
2022-12-15T21:26:52.705Z,94752.69
2022-12-15T21:29:19.989Z,94759.22
2022-12-15T21:31:46.421Z,94752.00
2022-12-15T21:34:12.800Z,94760.34
2022-12-15T21:36:39.201Z,94751.31
2022-12-15T21:39:05.616Z,94759.00
2022-12-15T21:41:31.971Z,94761.28
2022-12-15T21:43:58.350Z,94743.47
2022-12-15T21:46:27.921Z,94741.06
2022-12-15T21:48:54.530Z,94751.94
2022-12-15T21:51:21.038Z,94748.56
2022-12-15T21:53:47.435Z,94760.19
2022-12-15T21:56:13.806Z,94758.75
2022-12-15T21:58:40.175Z,94761.84
2022-12-15T22:01:06.554Z,94759.97
2022-12-15T22:03:32.971Z,94763.09
2022-12-15T22:05:59.342Z,94771.50
2022-12-15T22:08:25.770Z,94772.78
2022-12-15T22:10:52.175Z,94771.38
2022-12-15T22:13:18.557Z,94769.88
2022-12-15T22:15:44.950Z,94775.03
2022-12-15T22:18:11.297Z,94782.66
2022-12-15T22:20:37.627Z,94790.06
2022-12-15T22:23:04.023Z,94796.22
2022-12-15T22:25:30.418Z,94792.91
2022-12-15T22:27:56.787Z,94794.22
2022-12-15T22:30:23.164Z,94798.91
2022-12-15T22:32:49.619Z,94791.06
2022-12-15T22:35:17.013Z,94797.22
2022-12-15T22:37:43.440Z,94795.75
2022-12-15T22:40:12.083Z,94807.59
2022-12-15T22:45:22.174Z,94796.25
2022-12-15T22:47:48.673Z,94806.75
2022-12-15T22:50:15.047Z,94810.44
2022-12-15T22:52:41.382Z,94812.03
2022-12-15T22:55:07.776Z,94812.13
2022-12-15T22:57:34.134Z,94812.00
2022-12-15T23:00:00.695Z,94809.09
2022-12-15T23:02:27.269Z,94804.06
2022-12-15T23:04:53.668Z,94804.50
2022-12-15T23:07:21.137Z,94812.31
2022-12-15T23:09:47.524Z,94804.84
2022-12-15T23:12:13.863Z,94794.38
2022-12-15T23:14:41.358Z,94806.63
2022-12-15T23:17:07.770Z,94798.56
2022-12-15T23:19:34.506Z,94809.78
2022-12-15T23:22:00.872Z,94803.06
2022-12-15T23:24:27.231Z,94797.00
2022-12-15T23:26:53.597Z,94807.69
2022-12-15T23:29:20.034Z,94812.78
2022-12-15T23:31:46.529Z,94812.66
2022-12-15T23:34:12.906Z,94806.88
2022-12-15T23:36:42.453Z,94799.53
2022-12-15T23:39:08.806Z,94801.97
2022-12-15T23:41:35.268Z,94805.03
2022-12-15T23:44:01.631Z,94810.22
2022-12-15T23:46:28.072Z,94802.06
2022-12-15T23:48:55.094Z,94787.16
2022-12-15T23:51:21.519Z,94789.09
2022-12-15T23:53:47.876Z,94787.75
2022-12-15T23:56:14.226Z,94800.72
2022-12-15T23:58:40.604Z,94799.00
